Time;durP1;ratioP1;P1;durP2;ratioP2;P2;SDS_P1;SDS_P2;PMS_P1;PMS_P2;Temp;Humidity;BMP_temperature;BMP_pressure;BME280_temperature;BME280_humidity;BME280_pressure;Samples;Min_cycle;Max_cycle;Signal;HPM_P1;HPM_P2
2023/06/04 00:02:17;;;;;;;5.82;2.90;;;12.30;99.90;;;;;;5024285;28;20094;-57
2023/06/04 00:04:43;;;;;;;11.52;3.70;;;12.30;99.90;;;;;;5008931;28;20128;-56
2023/06/04 00:07:09;;;;;;;7.57;3.17;;;12.30;99.90;;;;;;5031146;28;20140;-56
2023/06/04 00:09:34;;;;;;;9.43;3.83;;;12.30;99.90;;;;;;5026601;28;20029;-56
2023/06/04 00:12:00;;;;;;;7.00;3.03;;;12.30;99.90;;;;;;5018015;28;20541;-56
2023/06/04 00:14:26;;;;;;;10.82;3.00;;;12.20;99.90;;;;;;5034427;28;20135;-56
2023/06/04 00:16:51;;;;;;;11.65;4.00;;;12.30;99.90;;;;;;5008791;28;20040;-57
2023/06/04 00:19:17;;;;;;;7.57;2.85;;;12.20;99.90;;;;;;5031900;28;20421;-56
2023/06/04 00:21:43;;;;;;;8.63;2.90;;;12.20;99.90;;;;;;5007813;28;20732;-57
2023/06/04 00:24:09;;;;;;;10.65;3.00;;;12.20;99.90;;;;;;5010310;28;20255;-57
2023/06/04 00:26:34;;;;;;;9.10;3.30;;;12.20;99.90;;;;;;5026309;28;20041;-56
2023/06/04 00:29:01;;;;;;;8.57;2.97;;;12.20;99.90;;;;;;5029664;28;20052;-54
2023/06/04 00:31:26;;;;;;;6.57;3.08;;;12.20;99.90;;;;;;5014932;28;20383;-55
2023/06/04 00:33:52;;;;;;;13.88;3.47;;;12.20;99.90;;;;;;5017417;28;20037;-52
2023/06/04 00:36:18;;;;;;;7.78;2.95;;;12.10;99.90;;;;;;5015501;28;20103;-55
2023/06/04 00:38:44;;;;;;;7.35;2.85;;;12.10;99.90;;;;;;5025587;28;20037;-53
2023/06/04 00:41:09;;;;;;;8.02;2.92;;;12.00;99.90;;;;;;5029849;28;20044;-55
2023/06/04 00:43:35;;;;;;;10.40;3.70;;;12.00;99.90;;;;;;5030625;28;20044;-53
2023/06/04 00:46:04;;;;;;;9.63;3.60;;;12.00;99.90;;;;;;5017528;28;20037;-55
2023/06/04 00:48:30;;;;;;;7.65;3.33;;;11.90;99.90;;;;;;5029127;28;20045;-53
2023/06/04 00:50:57;;;;;;;11.25;3.20;;;11.90;99.90;;;;;;5027576;28;20506;-56
2023/06/04 00:53:24;;;;;;;10.68;3.63;;;11.90;99.90;;;;;;5028594;28;20045;-54
2023/06/04 00:55:50;;;;;;;10.50;3.30;;;11.90;99.90;;;;;;5045401;28;20049;-55
2023/06/04 00:58:17;;;;;;;8.30;3.45;;;11.90;99.90;;;;;;5045986;28;20049;-52
2023/06/04 01:00:44;;;;;;;11.68;3.33;;;11.90;99.90;;;;;;5024945;28;20430;-56
2023/06/04 01:03:17;;;;;;;7.43;3.25;;;11.90;99.90;;;;;;5028344;28;20175;-55
2023/06/04 01:05:54;;;;;;;10.63;3.40;;;11.80;99.90;;;;;;5047284;28;20071;-54
2023/06/04 01:08:20;;;;;;;9.02;4.07;;;11.80;99.90;;;;;;5042450;28;20029;-55
2023/06/04 01:10:53;;;;;;;6.68;3.10;;;11.80;99.90;;;;;;5018955;28;20409;-56
2023/06/04 01:13:19;;;;;;;9.77;3.58;;;11.80;99.90;;;;;;5024563;28;20041;-55
2023/06/04 01:15:45;;;;;;;11.40;3.30;;;11.70;99.90;;;;;;5027221;28;20048;-56
2023/06/04 01:18:13;;;;;;;9.02;3.35;;;11.70;99.90;;;;;;5029092;28;20037;-56
2023/06/04 01:20:41;;;;;;;7.90;3.30;;;11.70;99.90;;;;;;5028659;28;20037;-56
2023/06/04 01:23:12;;;;;;;7.68;3.10;;;11.70;99.90;;;;;;5044547;28;20033;-56
2023/06/04 01:25:41;;;;;;;9.63;3.22;;;11.70;99.90;;;;;;5031402;28;20047;-52
2023/06/04 01:28:10;;;;;;;6.82;3.00;;;11.60;99.90;;;;;;5041041;28;20041;-55
2023/06/04 01:30:45;;;;;;;6.97;2.88;;;11.60;99.90;;;;;;5027836;28;20055;-55
2023/06/04 01:33:13;;;;;;;5.35;3.13;;;11.60;99.90;;;;;;5023982;28;20045;-55
2023/06/04 01:35:39;;;;;;;11.38;3.85;;;11.60;99.90;;;;;;5023036;28;20033;-55
2023/06/04 01:38:06;;;;;;;7.10;2.92;;;11.60;99.90;;;;;;5024353;28;20059;-55
2023/06/04 01:40:32;;;;;;;10.05;3.58;;;11.50;99.90;;;;;;5023472;28;20040;-56
2023/06/04 01:42:58;;;;;;;7.13;2.88;;;11.50;99.90;;;;;;5033680;28;20420;-55
2023/06/04 01:45:26;;;;;;;8.43;3.13;;;11.50;99.90;;;;;;5026228;28;20033;-55
2023/06/04 01:47:52;;;;;;;5.28;2.60;;;11.40;99.90;;;;;;5031284;28;20049;-56
2023/06/04 01:50:18;;;;;;;7.38;2.90;;;11.40;99.90;;;;;;5016398;28;20041;-54
2023/06/04 01:52:44;;;;;;;7.65;2.67;;;11.40;99.90;;;;;;5031310;28;20094;-56
2023/06/04 01:55:14;;;;;;;12.15;3.10;;;11.40;99.90;;;;;;5031454;28;20106;-55
2023/06/04 01:57:44;;;;;;;5.05;2.88;;;11.30;99.90;;;;;;5031817;28;20220;-55
2023/06/04 02:00:11;;;;;;;9.50;4.55;;;11.30;99.90;;;;;;5015684;28;20048;-56
2023/06/04 02:02:37;;;;;;;7.57;3.40;;;11.30;99.90;;;;;;5031130;28;20525;-56
2023/06/04 02:05:07;;;;;;;10.23;4.10;;;11.30;99.90;;;;;;5031221;28;20041;-56
2023/06/04 02:07:44;;;;;;;8.43;3.40;;;11.20;99.90;;;;;;5044325;28;20114;-56
2023/06/04 02:10:11;;;;;;;8.93;3.42;;;11.20;99.90;;;;;;5029570;28;20480;-56
2023/06/04 02:12:40;;;;;;;9.95;3.72;;;11.10;99.90;;;;;;5032086;28;20041;-56
2023/06/04 02:15:07;;;;;;;10.05;3.60;;;11.10;99.90;;;;;;5034367;28;20091;-56
2023/06/04 02:17:39;;;;;;;12.45;4.00;;;11.10;99.90;;;;;;5031284;28;20072;-54
2023/06/04 02:20:06;;;;;;;6.82;3.28;;;11.10;99.90;;;;;;5027006;28;20511;-56
2023/06/04 02:22:31;;;;;;;10.52;3.53;;;11.10;99.90;;;;;;5029937;28;20045;-55
2023/06/04 02:24:57;;;;;;;5.82;3.10;;;11.00;99.90;;;;;;5031390;28;20045;-56
2023/06/04 02:27:23;;;;;;;10.95;4.47;;;11.00;99.90;;;;;;5030175;28;20470;-55
2023/06/04 02:29:49;;;;;;;10.63;3.72;;;11.00;99.90;;;;;;5029419;28;20372;-56
2023/06/04 02:32:15;;;;;;;10.68;4.88;;;10.90;99.90;;;;;;5029813;28;20040;-53
2023/06/04 02:34:41;;;;;;;11.93;3.63;;;10.90;99.90;;;;;;5036419;28;20480;-53
2023/06/04 02:37:07;;;;;;;7.18;3.70;;;10.90;99.90;;;;;;5030323;28;20077;-56
2023/06/04 02:39:32;;;;;;;9.52;3.90;;;10.90;99.90;;;;;;5024600;28;20118;-56
2023/06/04 02:41:58;;;;;;;7.50;3.45;;;10.90;99.90;;;;;;5030149;28;20092;-56
2023/06/04 02:44:24;;;;;;;5.90;3.00;;;10.90;99.90;;;;;;5029641;28;20067;-56
2023/06/04 02:46:49;;;;;;;10.10;3.63;;;10.90;99.90;;;;;;5032137;28;20397;-55
2023/06/04 02:49:16;;;;;;;11.57;4.15;;;10.90;99.90;;;;;;5015899;28;20095;-55
2023/06/04 02:51:45;;;;;;;6.97;3.65;;;10.90;99.90;;;;;;5012195;28;20091;-55
2023/06/04 02:54:11;;;;;;;7.50;3.90;;;10.90;99.90;;;;;;5027116;28;20048;-56
2023/06/04 02:56:37;;;;;;;11.52;3.83;;;10.90;99.90;;;;;;5021508;28;20040;-55
2023/06/04 02:59:03;;;;;;;8.18;3.75;;;10.90;99.90;;;;;;5030688;28;20036;-55
2023/06/04 03:01:30;;;;;;;9.18;3.85;;;10.90;99.90;;;;;;5033123;28;20029;-55
2023/06/04 03:03:57;;;;;;;7.97;3.65;;;10.90;99.90;;;;;;5028673;28;20045;-54
2023/06/04 03:06:23;;;;;;;8.23;3.92;;;10.90;99.90;;;;;;5050345;28;20045;-56
2023/06/04 03:08:50;;;;;;;9.00;3.58;;;10.90;99.90;;;;;;5031042;28;20488;-55
2023/06/04 03:11:16;;;;;;;7.57;4.13;;;10.80;99.90;;;;;;5045038;28;20045;-56
2023/06/04 03:13:42;;;;;;;9.13;3.63;;;10.80;99.90;;;;;;5036135;28;20076;-56
2023/06/04 03:16:09;;;;;;;10.77;4.70;;;10.80;99.90;;;;;;5030707;28;20445;-55
2023/06/04 03:18:40;;;;;;;8.20;3.63;;;10.80;99.90;;;;;;5030471;28;20041;-56
2023/06/04 03:21:05;;;;;;;12.18;4.50;;;10.70;99.90;;;;;;5032905;28;20048;-56
2023/06/04 03:23:32;;;;;;;6.65;3.58;;;10.70;99.90;;;;;;5014645;28;20037;-56
2023/06/04 03:25:58;;;;;;;7.70;3.70;;;10.70;99.90;;;;;;5024112;28;20392;-55
2023/06/04 03:28:24;;;;;;;11.55;4.45;;;10.80;99.90;;;;;;5036174;28;20242;-56
2023/06/04 03:30:50;;;;;;;7.78;4.35;;;10.80;99.90;;;;;;5026421;28;20053;-56
2023/06/04 03:33:15;;;;;;;14.60;5.60;;;10.70;99.90;;;;;;5043004;28;20045;-56
2023/06/04 03:35:41;;;;;;;9.77;4.32;;;10.70;99.90;;;;;;5017828;28;20132;-55
2023/06/04 03:38:07;;;;;;;9.57;4.43;;;10.70;99.90;;;;;;5029745;28;20102;-56
2023/06/04 03:40:33;;;;;;;9.07;5.13;;;10.70;99.90;;;;;;5016104;28;20041;-55
2023/06/04 03:43:00;;;;;;;11.45;4.70;;;10.70;99.90;;;;;;5031574;28;20044;-56
2023/06/04 03:45:26;;;;;;;11.80;5.40;;;10.80;99.90;;;;;;5033305;28;20417;-55
2023/06/04 03:47:52;;;;;;;9.77;4.75;;;10.80;99.90;;;;;;5053796;28;20522;-56
2023/06/04 03:50:20;;;;;;;10.38;4.40;;;10.80;99.90;;;;;;5038093;28;20036;-56
2023/06/04 03:52:48;;;;;;;11.88;4.68;;;10.80;99.90;;;;;;5025157;28;20076;-56
2023/06/04 03:55:13;;;;;;;9.68;4.75;;;10.80;99.90;;;;;;5028903;28;20075;-56
2023/06/04 03:57:39;;;;;;;13.35;5.28;;;10.80;99.90;;;;;;5030728;28;20483;-55
2023/06/04 04:00:08;;;;;;;15.40;6.82;;;10.80;99.90;;;;;;5030240;28;20075;-56
2023/06/04 04:02:34;;;;;;;10.85;5.45;;;10.80;99.90;;;;;;5014379;28;20128;-56
2023/06/04 04:04:59;;;;;;;8.75;4.63;;;10.80;99.90;;;;;;5030481;28;20115;-56
2023/06/04 04:07:25;;;;;;;7.60;5.38;;;10.90;99.90;;;;;;5033533;28;20537;-56
2023/06/04 04:09:52;;;;;;;9.20;5.15;;;11.00;99.90;;;;;;5047784;28;20044;-56
2023/06/04 04:12:18;;;;;;;14.32;5.35;;;11.00;99.90;;;;;;5039714;28;20483;-55
2023/06/04 04:14:43;;;;;;;12.30;5.75;;;11.10;99.90;;;;;;5031058;28;20036;-55
2023/06/04 04:17:09;;;;;;;11.98;6.85;;;11.20;99.90;;;;;;5027115;28;20093;-55
2023/06/04 04:19:35;;;;;;;10.85;6.32;;;11.20;99.90;;;;;;5029129;28;20048;-56
2023/06/04 04:22:01;;;;;;;14.50;6.95;;;11.20;99.90;;;;;;5093540;22;20078;-61
2023/06/04 04:24:27;;;;;;;11.10;6.07;;;11.30;99.90;;;;;;5064426;28;20098;-61
2023/06/04 04:26:53;;;;;;;11.23;5.65;;;11.40;99.90;;;;;;5082807;28;20405;-61
2023/06/04 04:29:22;;;;;;;10.50;6.20;;;11.40;99.90;;;;;;5069256;28;20051;-61
2023/06/04 04:31:57;;;;;;;9.73;5.22;;;11.50;99.90;;;;;;5069525;28;20043;-61
2023/06/04 04:34:26;;;;;;;13.63;6.70;;;11.50;99.90;;;;;;5072482;28;20043;-61
2023/06/04 04:36:52;;;;;;;11.35;5.60;;;11.50;99.90;;;;;;5051946;28;20056;-61
2023/06/04 04:39:27;;;;;;;12.30;6.88;;;11.60;99.90;;;;;;5066017;28;20260;-61
2023/06/04 04:41:55;;;;;;;9.45;6.53;;;11.60;99.90;;;;;;5038418;28;20542;-61
2023/06/04 04:44:20;;;;;;;8.73;5.25;;;11.60;99.90;;;;;;5084349;28;20039;-61
2023/06/04 04:46:48;;;;;;;11.13;5.30;;;11.70;99.90;;;;;;5068585;28;20047;-61
2023/06/04 04:49:14;;;;;;;10.70;5.07;;;11.70;99.90;;;;;;5061013;28;20366;-61
2023/06/04 04:51:40;;;;;;;17.48;6.70;;;11.80;99.90;;;;;;5060111;28;20036;-61
2023/06/04 04:54:05;;;;;;;10.65;6.32;;;11.80;99.90;;;;;;5081565;28;20584;-61
2023/06/04 04:56:34;;;;;;;11.48;6.35;;;11.80;99.90;;;;;;5081723;28;20036;-61
2023/06/04 04:59:00;;;;;;;12.93;6.15;;;11.90;99.90;;;;;;5052312;28;20036;-61
2023/06/04 05:01:26;;;;;;;11.95;6.07;;;11.90;99.90;;;;;;5074709;28;20395;-61
2023/06/04 05:03:52;;;;;;;11.40;6.40;;;12.00;99.90;;;;;;5067004;28;20071;-61
2023/06/04 05:06:18;;;;;;;14.82;7.28;;;12.00;99.90;;;;;;5042303;28;20043;-61
2023/06/04 05:08:44;;;;;;;12.40;7.20;;;12.00;99.90;;;;;;5068051;28;20202;-61
2023/06/04 05:11:10;;;;;;;16.42;7.78;;;12.10;99.90;;;;;;5082126;28;20032;-61
2023/06/04 05:13:36;;;;;;;14.23;7.57;;;12.20;99.90;;;;;;5064106;28;20051;-61
2023/06/04 05:16:06;;;;;;;18.02;8.30;;;12.20;99.90;;;;;;5085020;28;20036;-62
2023/06/04 05:18:40;;;;;;;15.65;8.80;;;12.30;99.90;;;;;;5079963;28;20062;-61
2023/06/04 05:21:06;;;;;;;;;;;12.30;99.90;;;;;;5056878;28;20039;-62
2023/06/04 05:23:34;;;;;;;14.10;7.75;;;12.40;99.90;;;;;;5071447;28;19916;-61
2023/06/04 05:26:01;;;;;;;13.30;7.82;;;12.40;99.90;;;;;;5064424;28;20109;-62
2023/06/04 05:28:27;;;;;;;15.98;8.13;;;12.50;99.90;;;;;;5068516;28;20051;-61
2023/06/04 05:30:58;;;;;;;12.98;8.05;;;12.50;99.90;;;;;;5069139;28;20743;-61
2023/06/04 05:33:25;;;;;;;14.75;8.00;;;12.60;99.90;;;;;;5070898;28;20425;-62
2023/06/04 05:35:54;;;;;;;17.85;7.03;;;12.70;99.90;;;;;;5068139;28;20044;-62
2023/06/04 05:38:20;;;;;;;12.82;6.90;;;12.80;99.90;;;;;;5069485;28;20093;-62
2023/06/04 05:40:47;;;;;;;13.43;7.10;;;12.90;99.90;;;;;;5071612;28;20115;-62
2023/06/04 05:43:12;;;;;;;16.27;7.07;;;13.00;99.90;;;;;;5076090;28;20035;-62
2023/06/04 05:45:38;;;;;;;14.88;6.50;;;13.10;99.90;;;;;;5070942;28;20465;-61
2023/06/04 05:48:05;;;;;;;11.80;5.65;;;13.20;99.90;;;;;;5072760;28;20036;-62
2023/06/04 05:50:31;;;;;;;13.57;6.55;;;13.20;99.90;;;;;;5071729;28;20079;-62
2023/06/04 05:52:57;;;;;;;12.55;5.80;;;13.40;99.90;;;;;;5073402;28;20047;-61
2023/06/04 05:55:23;;;;;;;15.15;5.68;;;13.40;99.90;;;;;;5073418;28;20044;-62
2023/06/04 05:57:52;;;;;;;13.80;5.68;;;13.50;99.90;;;;;;5054227;28;20051;-62
2023/06/04 06:00:18;;;;;;;14.93;5.43;;;13.50;99.90;;;;;;5073292;28;20044;-62
2023/06/04 06:02:45;;;;;;;12.90;5.60;;;13.60;99.90;;;;;;5090716;28;20060;-62
2023/06/04 06:05:10;;;;;;;14.75;5.00;;;13.70;99.90;;;;;;5073492;28;20040;-61
2023/06/04 06:07:36;;;;;;;12.45;4.38;;;13.70;99.90;;;;;;5068594;28;20452;-62
2023/06/04 06:10:02;;;;;;;13.82;4.65;;;13.80;99.90;;;;;;5043296;28;20042;-62
2023/06/04 06:12:28;;;;;;;12.55;4.88;;;13.90;99.90;;;;;;5065847;28;20040;-62
2023/06/04 06:14:54;;;;;;;13.13;4.97;;;14.00;99.90;;;;;;5069033;28;20048;-62
2023/06/04 06:17:20;;;;;;;14.68;4.85;;;14.10;99.90;;;;;;5047804;28;20067;-62
2023/06/04 06:19:46;;;;;;;11.75;4.30;;;14.20;99.90;;;;;;5053954;28;20490;-62
2023/06/04 06:22:12;;;;;;;12.93;4.05;;;14.30;99.90;;;;;;5085407;28;20036;-62
2023/06/04 06:24:39;;;;;;;12.00;4.95;;;14.30;99.90;;;;;;5084696;28;20032;-62
2023/06/04 06:27:05;;;;;;;10.75;3.60;;;14.40;99.90;;;;;;5055241;28;20066;-62
2023/06/04 06:29:31;;;;;;;9.48;3.28;;;14.50;99.90;;;;;;5070225;28;20036;-62
2023/06/04 06:31:57;;;;;;;10.88;3.70;;;14.50;99.90;;;;;;5086538;28;20533;-62
2023/06/04 06:34:23;;;;;;;10.45;3.22;;;14.60;99.90;;;;;;5089801;28;20051;-62
2023/06/04 06:36:49;;;;;;;9.45;2.78;;;14.80;99.90;;;;;;5069102;28;20024;-62
2023/06/04 06:39:15;;;;;;;7.93;2.83;;;14.70;99.90;;;;;;5089078;28;20104;-62
2023/06/04 06:41:42;;;;;;;9.35;2.60;;;14.80;99.90;;;;;;5062674;28;20044;-62
2023/06/04 06:44:07;;;;;;;6.35;2.70;;;14.90;99.90;;;;;;5068944;28;20032;-62
2023/06/04 06:46:33;;;;;;;8.50;2.72;;;14.90;99.90;;;;;;5089005;28;20067;-62
2023/06/04 06:48:59;;;;;;;12.20;3.13;;;15.00;99.90;;;;;;5087414;28;20406;-62
2023/06/04 06:51:24;;;;;;;8.02;2.92;;;15.10;99.90;;;;;;5068553;28;20043;-62
2023/06/04 06:53:53;;;;;;;9.15;2.88;;;15.20;99.90;;;;;;5068482;28;20054;-62
2023/06/04 06:56:19;;;;;;;8.63;3.03;;;15.30;99.90;;;;;;5052154;28;20040;-62
2023/06/04 06:58:45;;;;;;;7.10;2.75;;;15.30;99.90;;;;;;5052138;28;20048;-62
2023/06/04 07:01:11;;;;;;;9.07;2.40;;;15.40;99.90;;;;;;5069494;28;20108;-62
2023/06/04 07:03:39;;;;;;;5.45;2.25;;;15.50;99.90;;;;;;5066919;28;20032;-62
2023/06/04 07:06:06;;;;;;;6.43;2.30;;;15.60;99.90;;;;;;5068672;28;20513;-62
2023/06/04 07:08:32;;;;;;;7.85;2.10;;;15.70;99.90;;;;;;5086183;28;20058;-62
2023/06/04 07:10:58;;;;;;;6.13;1.85;;;15.70;99.90;;;;;;5066145;28;20352;-62
2023/06/04 07:13:24;;;;;;;5.28;2.00;;;15.80;99.90;;;;;;5072982;28;20074;-62
2023/06/04 07:15:50;;;;;;;4.28;1.75;;;15.90;99.90;;;;;;5089489;28;20506;-62
2023/06/04 07:18:16;;;;;;;8.65;2.30;;;15.90;99.90;;;;;;5044666;28;20060;-62
2023/06/04 07:20:41;;;;;;;4.30;1.70;;;16.00;99.90;;;;;;5069688;28;20043;-62
2023/06/04 07:23:07;;;;;;;7.57;2.38;;;16.10;99.90;;;;;;5067787;28;20036;-62
2023/06/04 07:25:33;;;;;;;4.60;1.85;;;16.00;99.90;;;;;;5044766;28;20046;-62
2023/06/04 07:27:59;;;;;;;4.82;1.88;;;16.00;99.90;;;;;;5069339;28;20533;-62
2023/06/04 07:30:25;;;;;;;10.95;2.13;;;16.10;99.90;;;;;;5052642;28;20044;-62
2023/06/04 07:32:51;;;;;;;6.85;1.88;;;16.10;99.90;;;;;;5069667;28;20319;-62
2023/06/04 07:35:17;;;;;;;4.45;1.90;;;16.20;99.90;;;;;;5070397;28;20523;-62
2023/06/04 07:37:45;;;;;;;5.53;1.90;;;16.30;99.90;;;;;;5071239;28;20506;-62
2023/06/04 07:40:13;;;;;;;4.05;2.08;;;16.30;99.90;;;;;;5087025;28;20319;-62
2023/06/04 07:42:42;;;;;;;7.70;2.20;;;16.40;99.90;;;;;;5086866;28;20398;-62
2023/06/04 07:45:08;;;;;;;7.65;2.05;;;16.50;99.90;;;;;;5068112;28;20170;-62
2023/06/04 07:47:36;;;;;;;5.88;1.75;;;16.50;99.90;;;;;;5084059;28;20038;-62
2023/06/04 07:50:03;;;;;;;5.93;1.83;;;16.60;99.90;;;;;;5068165;28;20031;-62
2023/06/04 07:52:28;;;;;;;6.97;2.53;;;16.70;99.90;;;;;;5082139;28;20181;-62
2023/06/04 07:54:54;;;;;;;7.40;2.58;;;16.80;99.90;;;;;;5068369;28;20562;-62
2023/06/04 07:57:20;;;;;;;6.22;2.42;;;16.80;99.90;;;;;;5081773;28;20075;-62
2023/06/04 07:59:45;;;;;;;5.47;2.38;;;16.90;99.90;;;;;;5065228;28;20036;-62
2023/06/04 08:02:11;;;;;;;6.63;2.25;;;17.00;99.90;;;;;;5070077;28;20038;-62
2023/06/04 08:04:37;;;;;;;4.88;2.28;;;17.10;99.90;;;;;;5063178;28;20048;-62
2023/06/04 08:07:03;;;;;;;4.90;2.10;;;17.20;99.90;;;;;;5064762;28;20048;-62
2023/06/04 08:09:28;;;;;;;8.02;2.17;;;17.30;99.90;;;;;;5066952;28;20082;-61
2023/06/04 08:11:54;;;;;;;6.10;2.47;;;17.30;99.90;;;;;;5092062;28;20036;-62
2023/06/04 08:14:22;;;;;;;3.80;1.85;;;17.30;99.90;;;;;;5085574;28;20486;-62
2023/06/04 08:16:47;;;;;;;4.55;1.90;;;17.50;99.90;;;;;;5066643;28;20050;-62
2023/06/04 08:19:13;;;;;;;7.90;2.53;;;17.60;99.90;;;;;;5064146;28;20058;-62
2023/06/04 08:21:40;;;;;;;6.63;2.17;;;17.70;99.90;;;;;;5088677;28;20040;-62
2023/06/04 08:24:06;;;;;;;7.88;2.00;;;17.70;99.90;;;;;;5087720;28;20415;-62
2023/06/04 08:26:32;;;;;;;7.20;2.33;;;17.70;99.90;;;;;;5065688;28;20139;-62
2023/06/04 08:28:58;;;;;;;7.78;2.20;;;17.80;99.90;;;;;;5085405;28;20079;-62
2023/06/04 08:31:24;;;;;;;7.90;1.80;;;17.90;99.90;;;;;;5068509;28;20083;-62
2023/06/04 08:33:50;;;;;;;6.00;2.00;;;18.00;99.90;;;;;;5074658;28;20491;-62
2023/06/04 08:36:18;;;;;;;4.30;2.17;;;18.00;99.90;;;;;;5067947;28;20152;-62
2023/06/04 08:38:44;;;;;;;6.25;2.35;;;18.10;99.90;;;;;;5085199;28;20092;-62
2023/06/04 08:41:23;;;;;;;7.72;2.00;;;18.20;99.90;;;;;;5065799;28;20298;-62
2023/06/04 08:43:50;;;;;;;5.72;1.65;;;18.20;99.40;;;;;;5083398;28;20456;-62
2023/06/04 08:46:17;;;;;;;7.38;1.80;;;18.10;99.70;;;;;;5052986;28;20180;-62
2023/06/04 08:48:44;;;;;;;5.97;2.13;;;18.20;99.90;;;;;;5069356;28;20515;-62
2023/06/04 08:51:11;;;;;;;6.18;2.30;;;18.30;99.60;;;;;;5067797;28;20128;-62
2023/06/04 08:53:37;;;;;;;4.38;1.75;;;18.50;99.80;;;;;;5050132;28;20038;-62
2023/06/04 08:56:03;;;;;;;6.32;1.73;;;18.60;99.10;;;;;;5078993;28;20040;-62
2023/06/04 08:58:35;;;;;;;7.10;1.95;;;18.70;98.90;;;;;;5071621;28;20052;-61
2023/06/04 09:01:01;;;;;;;4.68;2.17;;;18.80;98.80;;;;;;5067770;28;20046;-62
2023/06/04 09:03:31;;;;;;;5.18;2.35;;;18.70;99.20;;;;;;5071909;28;20123;-62
2023/06/04 09:05:58;;;;;;;6.07;2.17;;;18.80;99.00;;;;;;5070724;28;20044;-63
2023/06/04 09:08:25;;;;;;;5.20;2.33;;;18.90;98.80;;;;;;5088444;28;20047;-62
2023/06/04 09:10:53;;;;;;;6.47;2.30;;;18.90;98.20;;;;;;5088106;28;20076;-62
2023/06/04 09:13:23;;;;;;;7.38;1.63;;;18.80;98.20;;;;;;5087350;28;20361;-62
2023/06/04 09:16:03;;;;;;;4.95;1.80;;;18.80;98.70;;;;;;5069368;28;20529;-62
2023/06/04 09:18:29;;;;;;;6.07;2.10;;;18.90;98.30;;;;;;5086100;28;20080;-62
2023/06/04 09:21:08;;;;;;;5.40;2.30;;;18.90;98.70;;;;;;5070048;28;20113;-60
2023/06/04 09:23:47;;;;;;;3.83;1.75;;;19.00;98.50;;;;;;5088310;28;20597;-61
2023/06/04 09:26:13;;;;;;;5.40;2.17;;;19.10;98.50;;;;;;5085655;28;20035;-62
2023/06/04 09:28:43;;;;;;;7.93;2.63;;;19.10;97.80;;;;;;5088153;28;20036;-62
2023/06/04 09:31:21;;;;;;;4.47;1.83;;;19.30;98.10;;;;;;5067209;28;20434;-62
2023/06/04 09:33:49;;;;;;;5.60;2.28;;;19.30;97.90;;;;;;5072963;28;20047;-61
2023/06/04 09:36:16;;;;;;;3.80;1.60;;;19.30;97.30;;;;;;5069768;28;20352;-62
2023/06/04 09:38:42;;;;;;;4.50;1.88;;;19.40;97.50;;;;;;5070072;28;20040;-62
2023/06/04 09:41:16;;;;;;;4.47;2.10;;;19.30;97.10;;;;;;5069357;28;20036;-61
2023/06/04 09:43:43;;;;;;;3.50;1.70;;;19.30;95.90;;;;;;5062201;28;20044;-62
2023/06/04 09:46:14;;;;;;;6.20;2.40;;;19.30;96.70;;;;;;5067286;28;20051;-62
2023/06/04 09:48:40;;;;;;;5.20;2.03;;;19.40;96.60;;;;;;5067198;28;20526;-62
2023/06/04 09:51:19;;;;;;;5.28;2.00;;;19.50;96.40;;;;;;5065455;28;20039;-62
2023/06/04 09:53:55;;;;;;;5.22;1.98;;;19.60;96.60;;;;;;5069458;28;20070;-61
2023/06/04 09:56:21;;;;;;;5.63;1.90;;;19.60;95.70;;;;;;5086987;28;20055;-62
2023/06/04 09:58:49;;;;;;;6.07;1.75;;;19.40;95.30;;;;;;5066876;28;20043;-61
2023/06/04 10:01:15;;;;;;;5.20;2.20;;;19.50;95.80;;;;;;5082371;28;20503;-61
2023/06/04 10:03:46;;;;;;;6.57;2.28;;;19.50;96.10;;;;;;5069356;28;20460;-62
2023/06/04 10:06:15;;;;;;;5.13;1.58;;;19.50;96.20;;;;;;5064689;28;20173;-62
2023/06/04 10:08:42;;;;;;;4.47;2.28;;;19.60;95.40;;;;;;5082973;28;20055;-62
2023/06/04 10:11:11;;;;;;;8.32;2.50;;;19.60;95.40;;;;;;5063955;28;20106;-62
2023/06/04 10:13:51;;;;;;;3.92;1.83;;;19.60;95.10;;;;;;5071059;28;20051;-62
2023/06/04 10:16:20;;;;;;;4.30;1.67;;;19.70;95.20;;;;;;5049894;28;20378;-62
2023/06/04 10:18:46;;;;;;;4.63;1.60;;;19.90;95.40;;;;;;5084138;28;20139;-61
2023/06/04 10:21:14;;;;;;;2.45;1.30;;;20.00;95.50;;;;;;5092133;22;20147;-58
2023/06/04 10:23:41;;;;;;;3.97;1.50;;;20.00;95.10;;;;;;5032022;28;20317;-57
2023/06/04 10:26:08;;;;;;;2.17;1.35;;;20.10;94.90;;;;;;5029859;28;20687;-56
2023/06/04 10:28:34;;;;;;;4.03;1.50;;;20.10;94.60;;;;;;5047654;28;20461;-56
2023/06/04 10:31:00;;;;;;;3.13;1.73;;;20.00;94.90;;;;;;5050833;28;20044;-58
2023/06/04 10:33:26;;;;;;;2.83;1.45;;;20.10;94.60;;;;;;5057706;28;20442;-57
2023/06/04 10:35:55;;;;;;;3.92;1.85;;;20.20;94.70;;;;;;5070158;28;20032;-56
2023/06/04 10:38:22;;;;;;;5.07;1.83;;;20.20;94.50;;;;;;5054024;28;20094;-56
2023/06/04 10:40:48;;;;;;;5.57;1.80;;;20.20;94.60;;;;;;5060035;28;20510;-54
2023/06/04 10:43:17;;;;;;;5.80;2.28;;;20.20;94.90;;;;;;5055677;28;20047;-55
2023/06/04 10:45:44;;;;;;;3.83;1.90;;;20.30;94.70;;;;;;5027474;28;20498;-53
2023/06/04 10:48:12;;;;;;;3.22;1.60;;;20.40;94.40;;;;;;5059575;28;20051;-53
2023/06/04 10:50:52;;;;;;;3.50;1.70;;;20.50;94.30;;;;;;5053994;28;20075;-57
2023/06/04 10:53:19;;;;;;;3.75;2.00;;;20.40;94.00;;;;;;5063912;28;20048;-54
2023/06/04 10:55:47;;;;;;;4.93;2.00;;;20.60;94.40;;;;;;5059103;28;20067;-54
2023/06/04 10:58:13;;;;;;;6.10;1.85;;;20.70;93.70;;;;;;5063145;28;20093;-54
2023/06/04 11:00:45;;;;;;;4.22;2.08;;;20.90;94.10;;;;;;5052132;28;20037;-55
2023/06/04 11:03:12;;;;;;;5.77;1.80;;;21.00;93.60;;;;;;5056033;28;20415;-56
2023/06/04 11:05:46;;;;;;;4.07;2.35;;;20.90;93.10;;;;;;5042244;28;20040;-56
2023/06/04 11:08:14;;;;;;;4.18;1.75;;;20.80;92.40;;;;;;5061041;28;20453;-53
2023/06/04 11:10:46;;;;;;;3.40;2.15;;;20.70;92.80;;;;;;5052926;28;20106;-54
2023/06/04 11:13:12;;;;;;;5.85;2.10;;;20.60;92.70;;;;;;5065566;28;20036;-55
2023/06/04 11:15:43;;;;;;;4.90;1.83;;;20.70;92.80;;;;;;5025574;28;20048;-54
2023/06/04 11:18:18;;;;;;;6.85;2.33;;;20.70;92.60;;;;;;5074986;28;20029;-58
2023/06/04 11:20:45;;;;;;;7.47;2.22;;;20.50;93.00;;;;;;5054741;28;20584;-58
2023/06/04 11:23:13;;;;;;;5.97;2.17;;;20.70;92.70;;;;;;5068958;28;20035;-61
2023/06/04 11:25:39;;;;;;;7.28;1.70;;;20.60;92.90;;;;;;5060472;28;20036;-58
2023/06/04 11:28:05;;;;;;;4.38;1.98;;;20.70;92.70;;;;;;5032309;28;20036;-58
2023/06/04 11:30:30;;;;;;;6.25;1.67;;;20.90;92.50;;;;;;5070817;28;20525;-59
2023/06/04 11:33:01;;;;;;;5.82;1.70;;;21.00;92.50;;;;;;5063557;28;20036;-58
2023/06/04 11:35:27;;;;;;;5.50;1.80;;;21.10;92.10;;;;;;5056843;28;20051;-59
2023/06/04 11:37:54;;;;;;;3.10;1.60;;;21.30;92.20;;;;;;5081949;28;20475;-56
2023/06/04 11:40:21;;;;;;;3.70;1.85;;;21.30;91.90;;;;;;5065707;28;20165;-59
2023/06/04 11:42:47;;;;;;;4.95;1.90;;;21.10;90.70;;;;;;5068914;28;20040;-58
2023/06/04 11:45:18;;;;;;;3.45;1.60;;;21.20;91.80;;;;;;5051483;28;20032;-57
2023/06/04 11:47:52;;;;;;;4.38;1.77;;;21.40;91.80;;;;;;5066787;28;20039;-58
2023/06/04 11:50:17;;;;;;;3.65;1.55;;;21.50;91.30;;;;;;5068050;28;20048;-56
2023/06/04 11:52:43;;;;;;;3.83;2.03;;;21.50;91.50;;;;;;5067153;28;20044;-57
2023/06/04 11:55:11;;;;;;;4.80;1.65;;;21.60;91.80;;;;;;5049090;28;20059;-58
2023/06/04 11:57:38;;;;;;;3.53;1.73;;;21.60;91.00;;;;;;5068192;28;20527;-54
2023/06/04 12:00:09;;;;;;;4.78;1.98;;;21.60;91.00;;;;;;5068906;28;20035;-57
2023/06/04 12:02:38;;;;;;;5.15;1.70;;;21.60;91.10;;;;;;5067951;28;20537;-56
2023/06/04 12:05:15;;;;;;;4.00;1.83;;;21.70;90.50;;;;;;5066204;28;20036;-56
2023/06/04 12:07:41;;;;;;;2.97;1.83;;;21.70;90.40;;;;;;5067984;28;20040;-56
2023/06/04 12:10:08;;;;;;;2.75;1.30;;;21.50;90.30;;;;;;5068010;28;20512;-56
2023/06/04 12:12:35;;;;;;;4.15;1.90;;;21.50;90.40;;;;;;5083840;28;20032;-57
2023/06/04 12:15:01;;;;;;;6.68;1.98;;;21.60;90.40;;;;;;5067023;28;20035;-55
2023/06/04 12:17:27;;;;;;;3.20;1.60;;;21.50;90.40;;;;;;5050449;28;20123;-56
2023/06/04 12:19:53;;;;;;;2.55;1.60;;;21.60;90.60;;;;;;5048783;28;20039;-57
2023/06/04 12:22:19;;;;;;;5.78;2.05;;;21.60;90.50;;;;;;5066667;28;20031;-56
2023/06/04 12:24:53;;;;;;;3.47;1.50;;;21.60;91.00;;;;;;5051148;28;20132;-56
2023/06/04 12:27:23;;;;;;;5.90;2.25;;;21.70;90.50;;;;;;5064476;28;20079;-57
2023/06/04 12:29:58;;;;;;;2.72;1.70;;;21.90;90.30;;;;;;5045383;28;20036;-57
2023/06/04 12:32:37;;;;;;;3.88;1.83;;;22.00;90.60;;;;;;5069918;28;20494;-57
2023/06/04 12:35:03;;;;;;;6.00;1.58;;;21.90;90.10;;;;;;5066939;28;20054;-57
2023/06/04 12:37:28;;;;;;;4.45;1.90;;;21.90;90.80;;;;;;5082603;28;20038;-58
2023/06/04 12:39:55;;;;;;;4.57;1.67;;;22.10;90.80;;;;;;5065776;28;20040;-58
2023/06/04 12:42:21;;;;;;;4.15;1.60;;;22.00;90.60;;;;;;5062691;28;20048;-57
2023/06/04 12:44:46;;;;;;;4.93;1.92;;;22.00;90.60;;;;;;5045661;28;20032;-57